CYBB/YBB METAR and TAF weather

Enter ICAO airport designator
Station Type Date Time Source
CYBB METAR 2018/10/21 00:00 UTC NOAA

CYBB 210000Z 23008KT 15SM BKN017 M14/M16 A2991 RMK SF7 -12.4/-16.8/0.0/LAST STFD OBS/NXT 211700Z SLP131


Station Type Date Time Source
CYBB Decoded METAR 2018/10/21 00:00 UTC NOAA

Pelly Bay Airport, Canada (CYBB) 68-32N 089-49W
Oct 20, 2018 - 08:00 PM EDT / 2018.10.21 0000 UTC
Wind: from the SW (230 degrees) at 9 MPH (8 KT):0
Visibility: 15 mile(s):0
Sky conditions: mostly cloudy
Temperature: 6 F (-14 C)
Windchill: -7 F (-22 C):2
Dew Point: 3 F (-16 C)
Relative Humidity: 84%
Pressure (altimeter): 29.91 in. Hg (1012 hPa)
ob: CYBB 210000Z 23008KT 15SM BKN017 M14/M16 A2991 RMK SF7 -12.4/-16.8/0.0/LAST STFD OBS/NXT 211700Z SLP131
cycle: 0

Station Type Date Time Source
CYBB TAF 2018/10/20 19:00 UTC NOAA

TAF CYBB 201838Z 2019/2024 26012KT P6SM SCT020
TEMPO 2019/2023 BKN020
FM202300 25010KT P6SM BKN020
TEMPO 2023/2024 4SM -SN OVC015
RMK NXT FCST WILL BE ISSUED AT 211845Z


Example: see airport list